LOG2AM EGSS-EGCC
Flight info
| Callsign | LOG2AM |
|---|---|
| Flight time | N/A |
| Altitude | 18000 |
| Route | UTAVA Q75 BUZAD T420 ELVOS |
| Aircraft | AT72/M-SDFGIRY/S |
Departure
| Time | 2026-05-04 06:25 |
|---|---|
| Airport | London Stansted Airport (EGSS) |
Arrival
| Time | N/A |
|---|---|
| Airport | Manchester Airport (EGCC) |
| Time | Latitude | Longitude | Altitude | Speed | Heading |
|---|---|---|---|---|---|
| 2026-05-04 06:15 | 51.89767 | 0.26340 | 349 ft | 0 kts | 41° |
| 2026-05-04 06:16 | 51.89755 | 0.26323 | 344 ft | 4 kts | 34° |
| 2026-05-04 06:16 | 51.89732 | 0.26304 | 343 ft | 4 kts | 4° |
| 2026-05-04 06:17 | 51.89712 | 0.26312 | 346 ft | 1 kts | 313° |
| 2026-05-04 06:17 | 51.89708 | 0.26318 | 346 ft | 0 kts | 313° |
| 2026-05-04 06:20 | 51.89732 | 0.26277 | 344 ft | 3 kts | 313° |
| 2026-05-04 06:20 | 51.89755 | 0.26237 | 339 ft | 6 kts | 313° |
| 2026-05-04 06:21 | 51.89772 | 0.25943 | 337 ft | 8 kts | 223° |
| 2026-05-04 06:21 | 51.89706 | 0.25845 | 337 ft | 17 kts | 223° |
| 2026-05-04 06:22 | 51.89604 | 0.25694 | 340 ft | 23 kts | 223° |
| 2026-05-04 06:22 | 51.89479 | 0.25503 | 338 ft | 26 kts | 224° |
| 2026-05-04 06:25 | 51.88083 | 0.13170 | 3484 ft | 186 kts | 277° |
| 2026-05-04 06:25 | 51.88622 | 0.11299 | 4033 ft | 186 kts | 310° |
| 2026-05-04 06:26 | 51.89396 | 0.09679 | 4875 ft | 176 kts | 298° |
| 2026-05-04 06:26 | 51.89808 | 0.07811 | 5420 ft | 185 kts | 285° |
| 2026-05-04 06:26 | 51.90150 | 0.05724 | 5798 ft | 201 kts | 284° |
| 2026-05-04 06:26 | 51.90474 | 0.03421 | 6131 ft | 217 kts | 278° |
| 2026-05-04 06:27 | 51.90837 | -0.06265 | 7979 ft | 239 kts | 264° |
| 2026-05-04 06:28 | 51.90660 | -0.08883 | 8533 ft | 228 kts | 276° |
| 2026-05-04 06:28 | 51.91122 | -0.11266 | 9294 ft | 222 kts | 292° |